Nearby METAR Reports

 

EGUW - Wattisham Raf, United Kingdom
Distance from station: SW 12mi, 19km
Updated: 13/12/2019 05:50
Rain, Partly cloudy
Rain, Partly cloudy
 Wind from WNW
Wind: WNW 12 mph , 19 km/h
Temperature: 5°C
Wind Chill: 1°C
Dew Point: 5°C
Humidity: 100%
Barometer: 971 hPa
Summary: Rain
Clouds: Partly cloudy
Visibility: 5 miles , 8 km
Cloud details: Mostly cloudy 152 m
Partly cloudy 518 m
2019/12/13 05:50 EGUW 130550Z AUTO 29010KT 8000 RA BKN005/// SCT017/// 05/05 Q0971
EGUL - Lakenheath Raf, United Kingdom
Distance from station: WNW 29mi, 47km
Updated: 13/12/2019 05:56
Overcast
Overcast
 Wind from WNW
Wind: WNW 9 mph , 15 km/h
Temperature: 6°C
Wind Chill: 3°C
Dew Point: 5°C
Humidity: 93%
Barometer: 971.6 hPa
Clouds: Overcast
Visibility: 6 miles , 10 km
Cloud details: Overcast 366 m
2019/12/13 05:56 EGUL 130556Z AUTO 29008KT 9999 OVC012 06/05 A2869 RMK AO2 DZE11RAB11E33DZB33E36 CIG 011 RWY06 SLP719 P0000 60003 T00590053 10072 20059 53022 $
 
EGUN - Mildenhall Raf, United Kingdom
Distance from station: WNW 32mi, 51km
Updated: 13/12/2019 05:56
Overcast
Overcast
 Wind from WNW
Wind: WNW 12 mph , 19 km/h
Temperature: 6°C
Wind Chill: 3°C
Dew Point: 5°C
Humidity: 93%
Barometer: 1005.4 hPa
Clouds: Overcast
Visibility: 6 miles , 10 km
Cloud details: Overcast 366 m
2019/12/13 05:56 EGUN 130556Z 29010KT 9999 OVC012 06/05 A2969 RMK SLP721 WND DATA ESTMD ALTSG ESTMD RVRNO $
EGSH - Norwich Wea Cntr, United Kingdom
Distance from station: N 32mi, 52km
Updated: 13/12/2019 05:50
Mostly cloudy
Mostly cloudy
 Wind from W
Wind: W 5 mph , 7 km/h
Temperature: 6°C
Wind Chill: 4°C
Dew Point: 6°C
Humidity: 100%
Barometer: 971 hPa
Clouds: Mostly cloudy
Visibility: 4 miles , 7 km
Cloud details: Mostly cloudy 1372 m
2019/12/13 05:50 EGSH 130550Z AUTO 26004KT 7000 BKN045/// 06/06 Q0971
 
EGYM - Marham Raf, United Kingdom
Distance from station: NW 39mi, 62km
Updated: 13/12/2019 05:50
Mist, Mostly cloudy
Mist, Mostly cloudy
 Wind from WNW
Wind: WNW 12 mph , 19 km/h
Temperature: 6°C
Wind Chill: 3°C
Dew Point: 5°C
Humidity: 93%
Barometer: 972 hPa
Summary: Mist
Clouds: Mostly cloudy
Visibility: 3 miles , 5 km
Cloud details: Mostly cloudy 1219 m
2019/12/13 05:50 EGYM 130550Z 29010KT 5000 BR BKN040 06/05 Q0972 WHT
EGSC - Cambridge, United Kingdom
Distance from station: W 43mi, 69km
Updated: 12/12/2019 17:50
NOT Current
Rain, Mostly cloudy
Rain, Mostly cloudy
 Wind from S
Wind: S 15 mph , 24 km/h
Temperature: 8°C
Wind Chill: 4°C
Dew Point: 7°C
Humidity: 93%
Barometer: 977 hPa
Summary: Rain
Clouds: Mostly cloudy
Visibility: 6 miles , 9 km
Cloud details: Mostly cloudy 335 m
2019/12/12 17:50 EGSC 121750Z 17013KT 9000 RA BKN011 08/07 Q0977
 
EGSS - Stansted Airport, United Kingdom
Distance from station: WSW 47mi, 76km
Updated: 13/12/2019 05:50
Light rain, Thunderstorm
Light rain, Thunderstorm
 Wind from WNW
Wind: WNW 15 mph , 24 km/h
Temperature: 5°C
Wind Chill: 1°C
Dew Point: 4°C
Humidity: 93%
Barometer: 973 hPa
Summary: Light rain
Clouds: Thunderstorm
Visibility: 6 miles , 10 km
Cloud details: Mostly cloudy 335 m
Overcast 884 m
2019/12/13 05:50 EGSS 130550Z AUTO 30013KT 9999 -RA BKN011/// OVC029/// //////TCU 05/04 Q0973
EGMC - Southend-On-Sea, United Kingdom
Distance from station: SSW 50mi, 80km
Updated: 13/12/2019 05:50
Light rain, Mostly cloudy
Light rain, Mostly cloudy
 Wind from W
Wind: W 15 mph , 24 km/h
Temperature: 5°C
Wind Chill: 1°C
Dew Point: 5°C
Humidity: 100%
Barometer: 972 hPa
Summary: Light rain
Clouds: Mostly cloudy
Visibility: 5 miles , 8 km
Cloud details: Partly cloudy 335 m
Mostly cloudy 427 m
2019/12/13 05:50 EGMC 130550Z 28013KT 250V310 8000 -RA SCT011 BKN014 05/05 Q0972